sensor_id;sensor_type;location;lat;lon;timestamp;temperature;humidity
8220;DHT22;4151;51.110;7.020;2023-07-13T00:00:27;17.30;99.90
8220;DHT22;4151;51.110;7.020;2023-07-13T00:02:53;17.30;99.90
8220;DHT22;4151;51.110;7.020;2023-07-13T00:05:23;17.20;99.90
8220;DHT22;4151;51.110;7.020;2023-07-13T00:07:49;17.20;99.90
8220;DHT22;4151;51.110;7.020;2023-07-13T00:10:15;17.10;99.90
8220;DHT22;4151;51.110;7.020;2023-07-13T00:12:42;17.00;99.90
8220;DHT22;4151;51.110;7.020;2023-07-13T00:15:24;16.90;99.90
8220;DHT22;4151;51.110;7.020;2023-07-13T00:17:54;16.90;99.90
8220;DHT22;4151;51.110;7.020;2023-07-13T00:20:22;16.90;99.90
8220;DHT22;4151;51.110;7.020;2023-07-13T00:22:48;16.90;99.90
8220;DHT22;4151;51.110;7.020;2023-07-13T00:25:14;16.90;99.90
8220;DHT22;4151;51.110;7.020;2023-07-13T00:27:43;16.90;99.90
8220;DHT22;4151;51.110;7.020;2023-07-13T00:30:09;16.80;99.90
8220;DHT22;4151;51.110;7.020;2023-07-13T00:32:35;16.80;99.90
8220;DHT22;4151;51.110;7.020;2023-07-13T00:35:01;16.80;99.90
8220;DHT22;4151;51.110;7.020;2023-07-13T00:37:28;16.70;99.90
8220;DHT22;4151;51.110;7.020;2023-07-13T00:39:54;16.70;99.90
8220;DHT22;4151;51.110;7.020;2023-07-13T00:42:20;16.80;99.90
8220;DHT22;4151;51.110;7.020;2023-07-13T00:47:37;16.70;99.90
8220;DHT22;4151;51.110;7.020;2023-07-13T00:50:04;16.70;99.90
8220;DHT22;4151;51.110;7.020;2023-07-13T00:52:31;16.70;99.90
8220;DHT22;4151;51.110;7.020;2023-07-13T00:54:57;16.70;99.90
8220;DHT22;4151;51.110;7.020;2023-07-13T00:57:23;16.70;99.90
8220;DHT22;4151;51.110;7.020;2023-07-13T00:59:53;16.70;99.90
8220;DHT22;4151;51.110;7.020;2023-07-13T01:02:19;16.80;99.90
8220;DHT22;4151;51.110;7.020;2023-07-13T01:04:45;16.70;99.90
8220;DHT22;4151;51.110;7.020;2023-07-13T01:07:11;16.70;99.90
8220;DHT22;4151;51.110;7.020;2023-07-13T01:09:37;16.60;99.90
8220;DHT22;4151;51.110;7.020;2023-07-13T01:12:03;16.50;99.90
8220;DHT22;4151;51.110;7.020;2023-07-13T01:14:29;16.50;99.90
8220;DHT22;4151;51.110;7.020;2023-07-13T01:16:55;16.60;99.90
8220;DHT22;4151;51.110;7.020;2023-07-13T01:19:42;16.50;99.90
8220;DHT22;4151;51.110;7.020;2023-07-13T01:22:11;16.40;99.90
8220;DHT22;4151;51.110;7.020;2023-07-13T01:24:39;16.40;99.90
8220;DHT22;4151;51.110;7.020;2023-07-13T01:27:06;16.40;99.90
8220;DHT22;4151;51.110;7.020;2023-07-13T01:29:34;16.30;99.90
8220;DHT22;4151;51.110;7.020;2023-07-13T01:32:00;16.20;99.90
8220;DHT22;4151;51.110;7.020;2023-07-13T01:34:27;16.20;99.90
8220;DHT22;4151;51.110;7.020;2023-07-13T01:36:53;16.20;99.90
8220;DHT22;4151;51.110;7.020;2023-07-13T01:39:22;16.10;99.90
8220;DHT22;4151;51.110;7.020;2023-07-13T01:41:48;16.00;99.90
8220;DHT22;4151;51.110;7.020;2023-07-13T01:44:14;16.00;99.90
8220;DHT22;4151;51.110;7.020;2023-07-13T01:46:39;15.90;99.90
8220;DHT22;4151;51.110;7.020;2023-07-13T01:49:05;15.90;99.90
8220;DHT22;4151;51.110;7.020;2023-07-13T01:51:31;15.90;99.90
8220;DHT22;4151;51.110;7.020;2023-07-13T01:53:56;15.90;99.90
8220;DHT22;4151;51.110;7.020;2023-07-13T01:56:22;15.90;99.90
8220;DHT22;4151;51.110;7.020;2023-07-13T01:58:48;15.80;99.90
8220;DHT22;4151;51.110;7.020;2023-07-13T02:01:13;15.80;99.90
8220;DHT22;4151;51.110;7.020;2023-07-13T02:03:39;15.80;99.90
8220;DHT22;4151;51.110;7.020;2023-07-13T02:06:05;15.80;99.90
8220;DHT22;4151;51.110;7.020;2023-07-13T02:08:32;15.80;99.90
8220;DHT22;4151;51.110;7.020;2023-07-13T02:10:58;15.80;99.90
8220;DHT22;4151;51.110;7.020;2023-07-13T02:13:23;15.80;99.90
8220;DHT22;4151;51.110;7.020;2023-07-13T02:15:52;15.80;99.90
8220;DHT22;4151;51.110;7.020;2023-07-13T02:18:18;15.80;99.90
8220;DHT22;4151;51.110;7.020;2023-07-13T02:20:43;15.80;99.90
8220;DHT22;4151;51.110;7.020;2023-07-13T02:23:09;15.70;99.90
8220;DHT22;4151;51.110;7.020;2023-07-13T02:25:35;15.70;99.90
8220;DHT22;4151;51.110;7.020;2023-07-13T02:28:00;15.60;99.90
8220;DHT22;4151;51.110;7.020;2023-07-13T02:30:27;15.60;99.90
8220;DHT22;4151;51.110;7.020;2023-07-13T02:32:57;15.50;99.90
8220;DHT22;4151;51.110;7.020;2023-07-13T02:35:23;15.60;99.90
8220;DHT22;4151;51.110;7.020;2023-07-13T02:37:49;15.60;99.90
8220;DHT22;4151;51.110;7.020;2023-07-13T02:40:15;15.60;99.90
8220;DHT22;4151;51.110;7.020;2023-07-13T02:42:41;15.50;99.90
8220;DHT22;4151;51.110;7.020;2023-07-13T02:45:08;15.50;99.90
8220;DHT22;4151;51.110;7.020;2023-07-13T02:47:34;15.50;99.90
8220;DHT22;4151;51.110;7.020;2023-07-13T02:50:00;15.60;99.90
8220;DHT22;4151;51.110;7.020;2023-07-13T02:52:26;15.60;99.90
8220;DHT22;4151;51.110;7.020;2023-07-13T02:54:52;15.60;99.90
8220;DHT22;4151;51.110;7.020;2023-07-13T02:57:18;15.60;99.90
8220;DHT22;4151;51.110;7.020;2023-07-13T02:59:43;15.70;99.90
8220;DHT22;4151;51.110;7.020;2023-07-13T03:02:09;15.60;99.90
8220;DHT22;4151;51.110;7.020;2023-07-13T03:04:36;15.60;99.90
8220;DHT22;4151;51.110;7.020;2023-07-13T03:07:02;15.60;99.90
8220;DHT22;4151;51.110;7.020;2023-07-13T03:09:28;15.60;99.90
8220;DHT22;4151;51.110;7.020;2023-07-13T03:11:55;15.60;99.90
8220;DHT22;4151;51.110;7.020;2023-07-13T03:14:24;15.60;99.90
8220;DHT22;4151;51.110;7.020;2023-07-13T03:16:49;15.50;99.90
8220;DHT22;4151;51.110;7.020;2023-07-13T03:19:15;15.50;99.90
8220;DHT22;4151;51.110;7.020;2023-07-13T03:21:41;15.40;99.90
8220;DHT22;4151;51.110;7.020;2023-07-13T03:24:07;15.40;99.90
8220;DHT22;4151;51.110;7.020;2023-07-13T03:26:32;15.30;99.90
8220;DHT22;4151;51.110;7.020;2023-07-13T03:28:58;15.30;99.90
8220;DHT22;4151;51.110;7.020;2023-07-13T03:31:30;15.30;99.90
8220;DHT22;4151;51.110;7.020;2023-07-13T03:33:56;15.30;99.90
8220;DHT22;4151;51.110;7.020;2023-07-13T03:36:25;15.20;99.90
8220;DHT22;4151;51.110;7.020;2023-07-13T03:38:53;15.20;99.90
8220;DHT22;4151;51.110;7.020;2023-07-13T03:41:20;15.30;99.90
8220;DHT22;4151;51.110;7.020;2023-07-13T03:43:45;15.20;99.90
8220;DHT22;4151;51.110;7.020;2023-07-13T03:46:13;15.30;99.90
8220;DHT22;4151;51.110;7.020;2023-07-13T03:48:39;15.20;99.90
8220;DHT22;4151;51.110;7.020;2023-07-13T03:51:06;15.30;99.90
8220;DHT22;4151;51.110;7.020;2023-07-13T03:53:31;15.20;99.90
8220;DHT22;4151;51.110;7.020;2023-07-13T03:55:57;15.20;99.90
8220;DHT22;4151;51.110;7.020;2023-07-13T03:58:26;15.20;99.90
8220;DHT22;4151;51.110;7.020;2023-07-13T04:00:52;15.20;99.90
8220;DHT22;4151;51.110;7.020;2023-07-13T04:03:18;15.20;99.90
8220;DHT22;4151;51.110;7.020;2023-07-13T04:05:44;15.20;99.90
8220;DHT22;4151;51.110;7.020;2023-07-13T04:08:09;15.20;99.90
8220;DHT22;4151;51.110;7.020;2023-07-13T04:10:35;15.20;99.90
8220;DHT22;4151;51.110;7.020;2023-07-13T04:13:00;15.20;99.90
8220;DHT22;4151;51.110;7.020;2023-07-13T04:15:29;15.30;99.90
8220;DHT22;4151;51.110;7.020;2023-07-13T04:17:55;15.20;99.90
8220;DHT22;4151;51.110;7.020;2023-07-13T04:20:21;15.30;99.90
8220;DHT22;4151;51.110;7.020;2023-07-13T04:22:47;15.30;99.90
8220;DHT22;4151;51.110;7.020;2023-07-13T04:25:12;15.30;99.90
8220;DHT22;4151;51.110;7.020;2023-07-13T04:27:38;15.20;99.90
8220;DHT22;4151;51.110;7.020;2023-07-13T04:30:05;15.30;99.90
8220;DHT22;4151;51.110;7.020;2023-07-13T04:32:31;15.30;99.90
8220;DHT22;4151;51.110;7.020;2023-07-13T04:34:58;15.40;99.90
8220;DHT22;4151;51.110;7.020;2023-07-13T04:37:25;15.30;99.90
8220;DHT22;4151;51.110;7.020;2023-07-13T04:39:50;15.40;99.90
8220;DHT22;4151;51.110;7.020;2023-07-13T04:42:16;15.40;99.90
8220;DHT22;4151;51.110;7.020;2023-07-13T04:44:42;15.40;99.90
8220;DHT22;4151;51.110;7.020;2023-07-13T04:47:07;15.40;99.90
8220;DHT22;4151;51.110;7.020;2023-07-13T04:49:33;15.50;99.90
8220;DHT22;4151;51.110;7.020;2023-07-13T04:51:58;15.50;99.90
8220;DHT22;4151;51.110;7.020;2023-07-13T04:54:24;15.60;99.90
8220;DHT22;4151;51.110;7.020;2023-07-13T04:56:49;15.70;99.90
8220;DHT22;4151;51.110;7.020;2023-07-13T04:59:15;15.70;99.90
8220;DHT22;4151;51.110;7.020;2023-07-13T05:01:41;15.70;99.90
8220;DHT22;4151;51.110;7.020;2023-07-13T05:04:06;15.80;99.90
8220;DHT22;4151;51.110;7.020;2023-07-13T05:06:32;15.90;99.90
8220;DHT22;4151;51.110;7.020;2023-07-13T05:08:58;15.90;99.90
8220;DHT22;4151;51.110;7.020;2023-07-13T05:11:24;15.90;99.90
8220;DHT22;4151;51.110;7.020;2023-07-13T05:13:49;15.90;99.90
8220;DHT22;4151;51.110;7.020;2023-07-13T05:16:15;15.90;99.90
8220;DHT22;4151;51.110;7.020;2023-07-13T05:18:41;15.90;99.90
8220;DHT22;4151;51.110;7.020;2023-07-13T05:21:08;16.00;99.90
8220;DHT22;4151;51.110;7.020;2023-07-13T05:23:35;16.00;99.90
8220;DHT22;4151;51.110;7.020;2023-07-13T05:26:01;16.00;99.90
8220;DHT22;4151;51.110;7.020;2023-07-13T05:28:27;16.10;99.90
8220;DHT22;4151;51.110;7.020;2023-07-13T05:30:53;16.20;99.90
8220;DHT22;4151;51.110;7.020;2023-07-13T05:33:19;16.30;99.90
8220;DHT22;4151;51.110;7.020;2023-07-13T05:35:45;16.30;99.90
8220;DHT22;4151;51.110;7.020;2023-07-13T05:38:11;16.40;99.90
8220;DHT22;4151;51.110;7.020;2023-07-13T05:40:37;16.50;99.90
8220;DHT22;4151;51.110;7.020;2023-07-13T05:43:03;16.60;99.90
8220;DHT22;4151;51.110;7.020;2023-07-13T05:45:28;16.70;99.90
8220;DHT22;4151;51.110;7.020;2023-07-13T05:47:54;16.80;99.90
8220;DHT22;4151;51.110;7.020;2023-07-13T05:50:19;16.80;99.90
8220;DHT22;4151;51.110;7.020;2023-07-13T05:52:45;16.90;99.90
8220;DHT22;4151;51.110;7.020;2023-07-13T05:55:10;16.90;99.90
8220;DHT22;4151;51.110;7.020;2023-07-13T05:57:36;17.00;99.90
8220;DHT22;4151;51.110;7.020;2023-07-13T06:00:02;17.00;99.90
8220;DHT22;4151;51.110;7.020;2023-07-13T06:02:28;17.10;99.90
8220;DHT22;4151;51.110;7.020;2023-07-13T06:04:53;17.20;99.90
8220;DHT22;4151;51.110;7.020;2023-07-13T06:07:19;17.10;99.90
8220;DHT22;4151;51.110;7.020;2023-07-13T06:09:44;17.10;99.90
8220;DHT22;4151;51.110;7.020;2023-07-13T06:12:10;17.10;99.90
8220;DHT22;4151;51.110;7.020;2023-07-13T06:14:36;17.00;99.90
8220;DHT22;4151;51.110;7.020;2023-07-13T06:17:01;17.00;99.90
8220;DHT22;4151;51.110;7.020;2023-07-13T06:19:28;17.10;99.90
8220;DHT22;4151;51.110;7.020;2023-07-13T06:21:54;17.00;99.90
8220;DHT22;4151;51.110;7.020;2023-07-13T06:24:20;17.10;99.90
8220;DHT22;4151;51.110;7.020;2023-07-13T06:26:45;17.20;99.90
8220;DHT22;4151;51.110;7.020;2023-07-13T06:29:11;17.20;99.90
8220;DHT22;4151;51.110;7.020;2023-07-13T06:31:36;17.30;99.90
8220;DHT22;4151;51.110;7.020;2023-07-13T06:34:02;17.40;99.90
8220;DHT22;4151;51.110;7.020;2023-07-13T06:36:27;17.50;99.90
8220;DHT22;4151;51.110;7.020;2023-07-13T06:38:53;17.60;99.90
8220;DHT22;4151;51.110;7.020;2023-07-13T06:41:19;17.60;99.90
8220;DHT22;4151;51.110;7.020;2023-07-13T06:43:45;17.50;99.90
8220;DHT22;4151;51.110;7.020;2023-07-13T06:46:10;17.50;99.90
8220;DHT22;4151;51.110;7.020;2023-07-13T06:48:36;17.60;99.90
8220;DHT22;4151;51.110;7.020;2023-07-13T06:51:02;17.70;99.90
8220;DHT22;4151;51.110;7.020;2023-07-13T06:53:28;17.80;99.90
8220;DHT22;4151;51.110;7.020;2023-07-13T06:55:53;17.80;99.90
8220;DHT22;4151;51.110;7.020;2023-07-13T06:58:19;17.90;99.90
8220;DHT22;4151;51.110;7.020;2023-07-13T07:00:45;18.00;99.90
8220;DHT22;4151;51.110;7.020;2023-07-13T07:03:11;18.00;99.90
8220;DHT22;4151;51.110;7.020;2023-07-13T07:05:37;17.90;99.90
8220;DHT22;4151;51.110;7.020;2023-07-13T08:16:26;19.30;99.90
8220;DHT22;4151;51.110;7.020;2023-07-13T08:18:52;20.40;99.90
8220;DHT22;4151;51.110;7.020;2023-07-13T08:21:18;20.00;99.90
8220;DHT22;4151;51.110;7.020;2023-07-13T08:23:45;19.90;99.90
8220;DHT22;4151;51.110;7.020;2023-07-13T08:26:11;19.50;99.90
8220;DHT22;4151;51.110;7.020;2023-07-13T08:28:37;19.50;99.90
8220;DHT22;4151;51.110;7.020;2023-07-13T08:31:06;19.30;99.90
8220;DHT22;4151;51.110;7.020;2023-07-13T08:33:33;19.50;99.90
8220;DHT22;4151;51.110;7.020;2023-07-13T08:35:59;19.70;99.90
8220;DHT22;4151;51.110;7.020;2023-07-13T08:38:25;19.90;99.90
8220;DHT22;4151;51.110;7.020;2023-07-13T08:40:53;19.90;99.90
8220;DHT22;4151;51.110;7.020;2023-07-13T08:43:25;20.00;99.90
8220;DHT22;4151;51.110;7.020;2023-07-13T08:48:44;20.10;99.90
8220;DHT22;4151;51.110;7.020;2023-07-13T08:51:27;20.10;99.90
8220;DHT22;4151;51.110;7.020;2023-07-13T08:53:58;20.00;99.90
8220;DHT22;4151;51.110;7.020;2023-07-13T08:56:28;20.00;99.90
8220;DHT22;4151;51.110;7.020;2023-07-13T08:59:01;19.60;99.90
8220;DHT22;4151;51.110;7.020;2023-07-13T09:01:51;19.80;99.90
8220;DHT22;4151;51.110;7.020;2023-07-13T09:04:28;20.00;99.90
8220;DHT22;4151;51.110;7.020;2023-07-13T09:07:05;20.40;99.90
8220;DHT22;4151;51.110;7.020;2023-07-13T09:14:59;20.60;99.90
8220;DHT22;4151;51.110;7.020;2023-07-13T09:17:30;20.30;99.90
8220;DHT22;4151;51.110;7.020;2023-07-13T09:22:34;20.80;99.90
8220;DHT22;4151;51.110;7.020;2023-07-13T09:25:27;21.00;99.90
8220;DHT22;4151;51.110;7.020;2023-07-13T09:28:00;21.00;99.90
8220;DHT22;4151;51.110;7.020;2023-07-13T09:30:36;21.00;99.90
8220;DHT22;4151;51.110;7.020;2023-07-13T09:33:04;20.60;99.90
8220;DHT22;4151;51.110;7.020;2023-07-13T09:35:30;21.30;99.90
8220;DHT22;4151;51.110;7.020;2023-07-13T09:38:26;21.40;99.90
8220;DHT22;4151;51.110;7.020;2023-07-13T09:43:36;22.00;99.90
8220;DHT22;4151;51.110;7.020;2023-07-13T09:46:01;22.10;99.90
8220;DHT22;4151;51.110;7.020;2023-07-13T09:48:36;22.00;99.90
8220;DHT22;4151;51.110;7.020;2023-07-13T09:51:14;21.80;99.90
8220;DHT22;4151;51.110;7.020;2023-07-13T09:53:44;22.00;99.90
8220;DHT22;4151;51.110;7.020;2023-07-13T09:56:24;22.10;99.90
8220;DHT22;4151;51.110;7.020;2023-07-13T09:58:50;22.00;99.90
8220;DHT22;4151;51.110;7.020;2023-07-13T10:01:15;22.00;99.90
8220;DHT22;4151;51.110;7.020;2023-07-13T10:03:53;22.10;99.90
8220;DHT22;4151;51.110;7.020;2023-07-13T10:06:21;22.30;99.90
8220;DHT22;4151;51.110;7.020;2023-07-13T10:08:55;21.70;99.90
8220;DHT22;4151;51.110;7.020;2023-07-13T10:11:27;21.70;99.90
8220;DHT22;4151;51.110;7.020;2023-07-13T10:13:56;21.70;99.90
8220;DHT22;4151;51.110;7.020;2023-07-13T10:16:31;22.00;99.90
8220;DHT22;4151;51.110;7.020;2023-07-13T10:19:00;22.20;99.90
8220;DHT22;4151;51.110;7.020;2023-07-13T10:21:32;22.00;99.90
8220;DHT22;4151;51.110;7.020;2023-07-13T10:24:21;22.10;99.90
8220;DHT22;4151;51.110;7.020;2023-07-13T10:29:37;22.20;99.90
8220;DHT22;4151;51.110;7.020;2023-07-13T10:32:09;22.30;99.90
8220;DHT22;4151;51.110;7.020;2023-07-13T10:34:36;21.90;99.90
8220;DHT22;4151;51.110;7.020;2023-07-13T10:37:02;22.20;99.90
8220;DHT22;4151;51.110;7.020;2023-07-13T10:39:28;22.40;99.90
8220;DHT22;4151;51.110;7.020;2023-07-13T10:42:02;22.40;99.90
8220;DHT22;4151;51.110;7.020;2023-07-13T10:44:31;22.40;99.90
8220;DHT22;4151;51.110;7.020;2023-07-13T10:47:00;22.10;99.90
8220;DHT22;4151;51.110;7.020;2023-07-13T10:49:30;21.60;99.90
8220;DHT22;4151;51.110;7.020;2023-07-13T10:51:57;22.00;99.90
8220;DHT22;4151;51.110;7.020;2023-07-13T10:57:15;22.80;99.90
8220;DHT22;4151;51.110;7.020;2023-07-13T10:59:45;22.80;99.90
8220;DHT22;4151;51.110;7.020;2023-07-13T11:02:26;22.70;99.90
8220;DHT22;4151;51.110;7.020;2023-07-13T11:04:53;22.30;99.90
8220;DHT22;4151;51.110;7.020;2023-07-13T11:07:30;22.50;99.90
8220;DHT22;4151;51.110;7.020;2023-07-13T11:10:04;22.60;99.90
8220;DHT22;4151;51.110;7.020;2023-07-13T11:12:53;22.70;99.90
8220;DHT22;4151;51.110;7.020;2023-07-13T11:15:39;22.80;99.90
8220;DHT22;4151;51.110;7.020;2023-07-13T11:26:43;22.10;99.90
8220;DHT22;4151;51.110;7.020;2023-07-13T11:31:42;22.10;99.90
8220;DHT22;4151;51.110;7.020;2023-07-13T11:34:15;22.20;99.90
8220;DHT22;4151;51.110;7.020;2023-07-13T11:36:43;22.30;99.90
8220;DHT22;4151;51.110;7.020;2023-07-13T11:39:16;22.30;99.90
8220;DHT22;4151;51.110;7.020;2023-07-13T11:41:48;22.50;99.90
8220;DHT22;4151;51.110;7.020;2023-07-13T11:44:20;22.60;99.90
8220;DHT22;4151;51.110;7.020;2023-07-13T11:46:54;22.40;99.90
8220;DHT22;4151;51.110;7.020;2023-07-13T11:49:22;22.20;99.90
8220;DHT22;4151;51.110;7.020;2023-07-13T11:51:48;22.00;99.90
8220;DHT22;4151;51.110;7.020;2023-07-13T11:54:29;21.90;99.90
8220;DHT22;4151;51.110;7.020;2023-07-13T11:56:58;21.70;99.90
8220;DHT22;4151;51.110;7.020;2023-07-13T11:59:26;21.50;99.90
8220;DHT22;4151;51.110;7.020;2023-07-13T12:01:54;21.50;99.90
8220;DHT22;4151;51.110;7.020;2023-07-13T12:04:26;21.50;99.90
8220;DHT22;4151;51.110;7.020;2023-07-13T12:07:03;21.80;99.90
8220;DHT22;4151;51.110;7.020;2023-07-13T12:09:28;21.40;99.90
8220;DHT22;4151;51.110;7.020;2023-07-13T12:11:57;21.60;99.90
8220;DHT22;4151;51.110;7.020;2023-07-13T12:14:23;21.90;99.90
8220;DHT22;4151;51.110;7.020;2023-07-13T12:16:50;22.00;99.90
8220;DHT22;4151;51.110;7.020;2023-07-13T12:19:28;22.10;99.90
8220;DHT22;4151;51.110;7.020;2023-07-13T12:21:56;22.50;99.90
8220;DHT22;4151;51.110;7.020;2023-07-13T12:24:22;23.00;99.90
8220;DHT22;4151;51.110;7.020;2023-07-13T12:27:00;24.00;99.90
8220;DHT22;4151;51.110;7.020;2023-07-13T12:29:26;24.80;99.90
8220;DHT22;4151;51.110;7.020;2023-07-13T12:31:53;25.10;99.90
8220;DHT22;4151;51.110;7.020;2023-07-13T12:34:20;25.20;99.90
8220;DHT22;4151;51.110;7.020;2023-07-13T12:36:55;25.00;99.90
8220;DHT22;4151;51.110;7.020;2023-07-13T12:39:32;24.70;99.90
8220;DHT22;4151;51.110;7.020;2023-07-13T12:42:23;24.30;99.90
8220;DHT22;4151;51.110;7.020;2023-07-13T12:45:05;24.70;99.90
8220;DHT22;4151;51.110;7.020;2023-07-13T12:47:42;24.40;99.90
8220;DHT22;4151;51.110;7.020;2023-07-13T12:50:20;24.40;99.90
8220;DHT22;4151;51.110;7.020;2023-07-13T12:52:51;24.60;99.90
8220;DHT22;4151;51.110;7.020;2023-07-13T12:55:19;24.10;99.90
8220;DHT22;4151;51.110;7.020;2023-07-13T12:57:54;23.40;99.90
8220;DHT22;4151;51.110;7.020;2023-07-13T13:00:35;23.30;99.90
8220;DHT22;4151;51.110;7.020;2023-07-13T13:03:12;23.30;99.90
8220;DHT22;4151;51.110;7.020;2023-07-13T13:05:44;24.40;99.90
8220;DHT22;4151;51.110;7.020;2023-07-13T13:08:13;24.70;99.90
8220;DHT22;4151;51.110;7.020;2023-07-13T13:10:39;23.90;99.90
8220;DHT22;4151;51.110;7.020;2023-07-13T13:13:04;23.70;99.90
8220;DHT22;4151;51.110;7.020;2023-07-13T13:15:30;23.50;99.90
8220;DHT22;4151;51.110;7.020;2023-07-13T13:17:56;24.60;99.90
8220;DHT22;4151;51.110;7.020;2023-07-13T13:20:25;25.90;99.90
8220;DHT22;4151;51.110;7.020;2023-07-13T13:22:51;26.20;99.90
8220;DHT22;4151;51.110;7.020;2023-07-13T13:25:18;25.60;99.90
8220;DHT22;4151;51.110;7.020;2023-07-13T13:27:45;25.10;99.90
8220;DHT22;4151;51.110;7.020;2023-07-13T13:30:13;24.60;99.90
8220;DHT22;4151;51.110;7.020;2023-07-13T13:32:40;24.50;99.90
8220;DHT22;4151;51.110;7.020;2023-07-13T13:35:16;24.40;99.90
8220;DHT22;4151;51.110;7.020;2023-07-13T13:37:42;24.30;99.90
8220;DHT22;4151;51.110;7.020;2023-07-13T13:42:41;24.40;99.90
8220;DHT22;4151;51.110;7.020;2023-07-13T13:45:09;24.40;99.90
8220;DHT22;4151;51.110;7.020;2023-07-13T13:47:35;24.40;99.90
8220;DHT22;4151;51.110;7.020;2023-07-13T13:50:15;24.40;99.90
8220;DHT22;4151;51.110;7.020;2023-07-13T13:52:41;24.40;99.90
8220;DHT22;4151;51.110;7.020;2023-07-13T13:55:21;24.40;99.90
8220;DHT22;4151;51.110;7.020;2023-07-13T13:57:47;24.70;99.90
8220;DHT22;4151;51.110;7.020;2023-07-13T14:00:15;25.50;99.90
8220;DHT22;4151;51.110;7.020;2023-07-13T14:02:45;25.80;99.90
8220;DHT22;4151;51.110;7.020;2023-07-13T14:05:19;26.20;99.90
8220;DHT22;4151;51.110;7.020;2023-07-13T14:07:45;26.20;99.90
8220;DHT22;4151;51.110;7.020;2023-07-13T14:10:14;26.40;99.90
8220;DHT22;4151;51.110;7.020;2023-07-13T14:12:42;25.90;99.90
8220;DHT22;4151;51.110;7.020;2023-07-13T14:15:20;25.80;99.90
8220;DHT22;4151;51.110;7.020;2023-07-13T14:17:46;25.30;99.90
8220;DHT22;4151;51.110;7.020;2023-07-13T14:20:15;24.70;99.90
8220;DHT22;4151;51.110;7.020;2023-07-13T14:22:41;24.30;99.90
8220;DHT22;4151;51.110;7.020;2023-07-13T14:25:12;23.50;99.90
8220;DHT22;4151;51.110;7.020;2023-07-13T14:27:38;23.50;99.90
8220;DHT22;4151;51.110;7.020;2023-07-13T14:30:15;24.00;99.90
8220;DHT22;4151;51.110;7.020;2023-07-13T14:32:41;25.00;99.90
8220;DHT22;4151;51.110;7.020;2023-07-13T14:35:10;25.10;99.90
8220;DHT22;4151;51.110;7.020;2023-07-13T14:37:36;24.60;99.90
8220;DHT22;4151;51.110;7.020;2023-07-13T14:40:04;24.00;99.90
8220;DHT22;4151;51.110;7.020;2023-07-13T14:42:30;23.80;99.90
8220;DHT22;4151;51.110;7.020;2023-07-13T14:44:55;23.90;99.90
8220;DHT22;4151;51.110;7.020;2023-07-13T14:47:21;23.90;99.90
8220;DHT22;4151;51.110;7.020;2023-07-13T14:49:46;23.90;99.90
8220;DHT22;4151;51.110;7.020;2023-07-13T14:52:19;23.60;99.90
8220;DHT22;4151;51.110;7.020;2023-07-13T14:54:45;23.70;99.90
8220;DHT22;4151;51.110;7.020;2023-07-13T14:57:16;23.80;99.90
8220;DHT22;4151;51.110;7.020;2023-07-13T14:59:42;23.80;99.90
8220;DHT22;4151;51.110;7.020;2023-07-13T15:02:28;24.00;99.90
8220;DHT22;4151;51.110;7.020;2023-07-13T15:04:55;24.30;99.90
8220;DHT22;4151;51.110;7.020;2023-07-13T15:07:20;24.80;99.90
8220;DHT22;4151;51.110;7.020;2023-07-13T15:09:47;25.20;99.90
8220;DHT22;4151;51.110;7.020;2023-07-13T15:12:13;24.70;99.90
8220;DHT22;4151;51.110;7.020;2023-07-13T15:14:38;24.20;99.90
8220;DHT22;4151;51.110;7.020;2023-07-13T15:17:05;23.70;99.90
8220;DHT22;4151;51.110;7.020;2023-07-13T15:19:31;23.30;99.90
8220;DHT22;4151;51.110;7.020;2023-07-13T15:21:57;23.20;99.90
8220;DHT22;4151;51.110;7.020;2023-07-13T15:24:23;23.10;99.90
8220;DHT22;4151;51.110;7.020;2023-07-13T15:26:50;22.90;99.90
8220;DHT22;4151;51.110;7.020;2023-07-13T15:29:16;22.70;99.90
8220;DHT22;4151;51.110;7.020;2023-07-13T15:31:43;22.50;99.90
8220;DHT22;4151;51.110;7.020;2023-07-13T15:34:16;22.10;99.90
8220;DHT22;4151;51.110;7.020;2023-07-13T15:36:44;21.70;99.90
8220;DHT22;4151;51.110;7.020;2023-07-13T15:39:14;21.30;99.90
8220;DHT22;4151;51.110;7.020;2023-07-13T15:41:41;21.00;99.90
8220;DHT22;4151;51.110;7.020;2023-07-13T15:44:30;20.70;99.90
8220;DHT22;4151;51.110;7.020;2023-07-13T15:46:56;20.30;99.90
8220;DHT22;4151;51.110;7.020;2023-07-13T15:49:22;20.20;99.90
8220;DHT22;4151;51.110;7.020;2023-07-13T15:51:48;20.00;99.90
8220;DHT22;4151;51.110;7.020;2023-07-13T15:54:16;20.00;99.90
8220;DHT22;4151;51.110;7.020;2023-07-13T15:56:42;20.00;99.90
8220;DHT22;4151;51.110;7.020;2023-07-13T15:59:11;20.10;99.90
8220;DHT22;4151;51.110;7.020;2023-07-13T16:01:39;20.10;99.90
8220;DHT22;4151;51.110;7.020;2023-07-13T16:04:07;20.00;99.90
8220;DHT22;4151;51.110;7.020;2023-07-13T16:06:35;20.10;99.90
8220;DHT22;4151;51.110;7.020;2023-07-13T16:09:02;20.10;99.90
8220;DHT22;4151;51.110;7.020;2023-07-13T16:11:34;20.10;99.90
8220;DHT22;4151;51.110;7.020;2023-07-13T16:14:00;20.20;99.90
8220;DHT22;4151;51.110;7.020;2023-07-13T16:16:27;20.20;99.90
8220;DHT22;4151;51.110;7.020;2023-07-13T16:19:03;20.40;99.90
8220;DHT22;4151;51.110;7.020;2023-07-13T16:21:32;20.40;99.90
8220;DHT22;4151;51.110;7.020;2023-07-13T16:24:01;20.50;99.90
8220;DHT22;4151;51.110;7.020;2023-07-13T16:26:30;20.50;99.90
8220;DHT22;4151;51.110;7.020;2023-07-13T16:29:26;20.60;99.90
8220;DHT22;4151;51.110;7.020;2023-07-13T16:32:15;20.80;99.90
8220;DHT22;4151;51.110;7.020;2023-07-13T16:34:42;20.90;99.90
8220;DHT22;4151;51.110;7.020;2023-07-13T16:37:19;20.90;99.90
8220;DHT22;4151;51.110;7.020;2023-07-13T16:39:51;21.00;99.90
8220;DHT22;4151;51.110;7.020;2023-07-13T16:42:20;21.00;99.90
8220;DHT22;4151;51.110;7.020;2023-07-13T16:44:46;21.10;99.90
8220;DHT22;4151;51.110;7.020;2023-07-13T16:47:14;21.20;99.90
8220;DHT22;4151;51.110;7.020;2023-07-13T16:49:40;21.30;99.90
8220;DHT22;4151;51.110;7.020;2023-07-13T16:52:06;21.50;99.90
8220;DHT22;4151;51.110;7.020;2023-07-13T16:54:36;21.50;99.90
8220;DHT22;4151;51.110;7.020;2023-07-13T16:57:11;21.40;99.90
8220;DHT22;4151;51.110;7.020;2023-07-13T16:59:37;21.40;99.90
8220;DHT22;4151;51.110;7.020;2023-07-13T17:04:49;21.40;99.90
8220;DHT22;4151;51.110;7.020;2023-07-13T17:07:15;21.40;99.90
8220;DHT22;4151;51.110;7.020;2023-07-13T17:09:43;21.50;99.90
8220;DHT22;4151;51.110;7.020;2023-07-13T17:12:11;21.50;99.90
8220;DHT22;4151;51.110;7.020;2023-07-13T17:14:37;21.60;99.90
8220;DHT22;4151;51.110;7.020;2023-07-13T17:17:19;21.70;99.90
8220;DHT22;4151;51.110;7.020;2023-07-13T17:19:50;21.70;99.90
8220;DHT22;4151;51.110;7.020;2023-07-13T17:22:17;21.80;99.90
8220;DHT22;4151;51.110;7.020;2023-07-13T17:24:47;21.90;99.90
8220;DHT22;4151;51.110;7.020;2023-07-13T17:27:14;22.00;99.90
8220;DHT22;4151;51.110;7.020;2023-07-13T17:29:41;22.00;99.90
8220;DHT22;4151;51.110;7.020;2023-07-13T17:32:12;22.00;99.90
8220;DHT22;4151;51.110;7.020;2023-07-13T17:34:40;22.00;99.90
8220;DHT22;4151;51.110;7.020;2023-07-13T17:37:13;22.10;99.90
8220;DHT22;4151;51.110;7.020;2023-07-13T17:39:40;22.20;99.90
8220;DHT22;4151;51.110;7.020;2023-07-13T17:42:06;22.20;99.90
8220;DHT22;4151;51.110;7.020;2023-07-13T17:44:32;22.10;99.90
8220;DHT22;4151;51.110;7.020;2023-07-13T17:46:57;22.10;99.90
8220;DHT22;4151;51.110;7.020;2023-07-13T17:49:24;22.10;99.90
8220;DHT22;4151;51.110;7.020;2023-07-13T17:59:55;22.40;99.90
8220;DHT22;4151;51.110;7.020;2023-07-13T18:02:22;22.90;99.90
8220;DHT22;4151;51.110;7.020;2023-07-13T18:04:48;22.90;99.90